sensor_id;sensor_type;location;lat;lon;timestamp;pressure;altitude;pressure_sealevel;temperature;humidity
31337;BME280;22846;42.654;23.314;2022-09-17T00:00:46;93686.09;;;28.22;48.21
31337;BME280;22846;42.654;23.314;2022-09-17T00:03:12;93698.59;;;28.23;48.19
31337;BME280;22846;42.654;23.314;2022-09-17T00:05:37;93688.34;;;28.24;48.21
31337;BME280;22846;42.654;23.314;2022-09-17T00:08:04;93675.09;;;28.22;48.24
31337;BME280;22846;42.654;23.314;2022-09-17T00:10:30;93678.59;;;28.23;48.34
31337;BME280;22846;42.654;23.314;2022-09-17T00:12:56;93671.88;;;28.24;48.10
31337;BME280;22846;42.654;23.314;2022-09-17T00:15:22;93666.38;;;28.24;47.98
31337;BME280;22846;42.654;23.314;2022-09-17T00:17:53;93656.16;;;28.24;48.27
31337;BME280;22846;42.654;23.314;2022-09-17T00:20:18;93652.63;;;28.24;48.04
31337;BME280;22846;42.654;23.314;2022-09-17T00:22:44;93658.91;;;28.24;48.04
31337;BME280;22846;42.654;23.314;2022-09-17T00:25:09;93655.38;;;28.24;48.08
31337;BME280;22846;42.654;23.314;2022-09-17T00:27:34;93652.63;;;28.24;48.22
31337;BME280;22846;42.654;23.314;2022-09-17T00:30:00;93648.66;;;28.25;47.99
31337;BME280;22846;42.654;23.314;2022-09-17T00:32:25;93650.66;;;28.24;48.18
31337;BME280;22846;42.654;23.314;2022-09-17T00:34:51;93650.66;;;28.24;48.01
31337;BME280;22846;42.654;23.314;2022-09-17T00:37:18;93661.66;;;28.24;48.26
31337;BME280;22846;42.654;23.314;2022-09-17T00:39:43;93668.63;;;28.25;48.07
31337;BME280;22846;42.654;23.314;2022-09-17T00:42:13;93670.63;;;28.25;48.29
31337;BME280;22846;42.654;23.314;2022-09-17T00:44:50;93671.88;;;28.24;48.04
31337;BME280;22846;42.654;23.314;2022-09-17T00:47:21;93696.88;;;28.26;47.98
31337;BME280;22846;42.654;23.314;2022-09-17T00:49:50;93684.38;;;28.25;48.18
31337;BME280;22846;42.654;23.314;2022-09-17T00:52:20;93667.16;;;28.24;48.27
31337;BME280;22846;42.654;23.314;2022-09-17T00:54:59;93664.41;;;28.24;48.19
31337;BME280;22846;42.654;23.314;2022-09-17T00:57:25;93674.13;;;28.25;48.20
31337;BME280;22846;42.654;23.314;2022-09-17T00:59:52;93701.06;;;28.21;47.96
31337;BME280;22846;42.654;23.314;2022-09-17T01:02:18;93696.09;;;28.25;48.05
31337;BME280;22846;42.654;23.314;2022-09-17T01:04:44;93695.34;;;28.25;48.08
31337;BME280;22846;42.654;23.314;2022-09-17T01:10:40;93667.88;;;28.25;48.15
31337;BME280;22846;42.654;23.314;2022-09-17T01:13:41;93686.38;;;28.24;48.31
31337;BME280;22846;42.654;23.314;2022-09-17T01:22:02;93650.38;;;28.22;48.19
31337;BME280;22846;42.654;23.314;2022-09-17T01:30:42;93660.13;;;28.23;48.19
31337;BME280;22846;42.654;23.314;2022-09-17T01:33:41;93668.84;;;28.22;48.24
31337;BME280;22846;42.654;23.314;2022-09-17T01:39:28;93655.38;;;28.24;48.08
31337;BME280;22846;42.654;23.314;2022-09-17T01:42:19;93658.13;;;28.24;48.25
31337;BME280;22846;42.654;23.314;2022-09-17T01:44:58;93643.66;;;28.23;48.17
31337;BME280;22846;42.654;23.314;2022-09-17T01:47:40;93638.91;;;28.24;48.33
31337;BME280;22846;42.654;23.314;2022-09-17T01:50:10;93612.66;;;28.23;48.07
31337;BME280;22846;42.654;23.314;2022-09-17T01:52:39;93577.91;;;28.20;47.92
31337;BME280;22846;42.654;23.314;2022-09-17T01:55:13;93603.88;;;28.19;48.22
31337;BME280;22846;42.654;23.314;2022-09-17T02:00:13;93650.38;;;28.22;48.35
31337;BME280;22846;42.654;23.314;2022-09-17T02:02:57;93666.28;;;28.18;48.22
31337;BME280;22846;42.654;23.314;2022-09-17T02:05:34;93645.34;;;28.21;48.17
31337;BME280;22846;42.654;23.314;2022-09-17T02:08:07;93633.41;;;28.24;48.06
31337;BME280;22846;42.654;23.314;2022-09-17T02:10:36;93638.91;;;28.24;48.00
31337;BME280;22846;42.654;23.314;2022-09-17T02:13:22;93600.63;;;28.20;48.14
31337;BME280;22846;42.654;23.314;2022-09-17T02:16:00;93589.44;;;28.24;48.21
31337;BME280;22846;42.654;23.314;2022-09-17T02:21:07;93534.22;;;28.22;48.32
31337;BME280;22846;42.654;23.314;2022-09-17T02:23:40;93509.47;;;28.22;47.89
31337;BME280;22846;42.654;23.314;2022-09-17T02:26:14;93501.25;;;28.22;48.09
31337;BME280;22846;42.654;23.314;2022-09-17T02:28:48;93520.47;;;28.22;48.25
31337;BME280;22846;42.654;23.314;2022-09-17T02:31:15;93491.75;;;28.23;48.12
31337;BME280;22846;42.654;23.314;2022-09-17T02:33:43;93504.75;;;28.22;48.18
31337;BME280;22846;42.654;23.314;2022-09-17T02:36:11;93502.94;;;28.19;48.20
31337;BME280;22846;42.654;23.314;2022-09-17T02:38:40;93518.00;;;28.24;47.91
31337;BME280;22846;42.654;23.314;2022-09-17T02:43:57;93556.47;;;28.24;48.14
31337;BME280;22846;42.654;23.314;2022-09-17T02:49:28;93556.47;;;28.24;47.95
31337;BME280;22846;42.654;23.314;2022-09-17T02:52:06;93518.53;;;28.28;47.76
31337;BME280;22846;42.654;23.314;2022-09-17T02:54:44;93572.94;;;28.24;47.81
31337;BME280;22846;42.654;23.314;2022-09-17T02:57:29;93551.75;;;28.24;47.85
31337;BME280;22846;42.654;23.314;2022-09-17T03:00:18;93534.47;;;28.24;47.99
31337;BME280;22846;42.654;23.314;2022-09-17T03:05:13;93517.25;;;28.23;47.94
31337;BME280;22846;42.654;23.314;2022-09-17T03:07:41;93502.28;;;28.24;47.93
31337;BME280;22846;42.654;23.314;2022-09-17T03:10:06;93486.53;;;28.25;48.00
31337;BME280;22846;42.654;23.314;2022-09-17T03:12:33;93493.78;;;28.22;48.01
31337;BME280;22846;42.654;23.314;2022-09-17T03:14:58;93509.00;;;28.23;47.86
31337;BME280;22846;42.654;23.314;2022-09-17T03:17:25;93527.00;;;28.24;48.23
31337;BME280;22846;42.654;23.314;2022-09-17T03:19:50;93520.25;;;28.25;47.97
31337;BME280;22846;42.654;23.314;2022-09-17T03:22:15;93519.50;;;28.25;47.81
31337;BME280;22846;42.654;23.314;2022-09-17T03:24:41;93525.75;;;28.25;47.81
31337;BME280;22846;42.654;23.314;2022-09-17T03:27:06;93516.22;;;28.21;47.84
31337;BME280;22846;42.654;23.314;2022-09-17T03:29:32;93523.75;;;28.26;47.92
31337;BME280;22846;42.654;23.314;2022-09-17T03:31:57;93521.03;;;28.26;47.98
31337;BME280;22846;42.654;23.314;2022-09-17T03:34:23;93518.28;;;28.26;47.93
31337;BME280;22846;42.654;23.314;2022-09-17T03:36:48;93504.53;;;28.26;47.84
31337;BME280;22846;42.654;23.314;2022-09-17T03:39:14;93509.25;;;28.25;47.75
31337;BME280;22846;42.654;23.314;2022-09-17T03:41:39;93496.28;;;28.26;47.86
31337;BME280;22846;42.654;23.314;2022-09-17T03:44:05;93484.53;;;28.25;47.91
31337;BME280;22846;42.654;23.314;2022-09-17T03:46:30;93492.78;;;28.25;47.87
31337;BME280;22846;42.654;23.314;2022-09-17T03:48:56;93479.81;;;28.26;47.76
31337;BME280;22846;42.654;23.314;2022-09-17T03:51:21;93468.03;;;28.25;47.78
31337;BME280;22846;42.654;23.314;2022-09-17T03:53:47;93466.06;;;28.26;47.81
31337;BME280;22846;42.654;23.314;2022-09-17T03:56:12;93482.53;;;28.26;47.92
31337;BME280;22846;42.654;23.314;2022-09-17T03:58:38;93493.53;;;28.26;47.66
31337;BME280;22846;42.654;23.314;2022-09-17T04:01:04;93494.03;;;28.24;47.91
31337;BME280;22846;42.654;23.314;2022-09-17T04:03:30;93492.78;;;28.25;47.87
31337;BME280;22846;42.654;23.314;2022-09-17T04:05:56;93496.28;;;28.26;47.83
31337;BME280;22846;42.654;23.314;2022-09-17T04:08:22;93510.03;;;28.26;47.95
31337;BME280;22846;42.654;23.314;2022-09-17T04:10:47;93517.50;;;28.25;47.86
31337;BME280;22846;42.654;23.314;2022-09-17T04:13:14;93521.75;;;28.26;47.75
31337;BME280;22846;42.654;23.314;2022-09-17T04:15:40;93525.28;;;28.27;47.94
31337;BME280;22846;42.654;23.314;2022-09-17T04:18:05;93526.50;;;28.26;47.91
31337;BME280;22846;42.654;23.314;2022-09-17T04:20:31;93543.00;;;28.26;47.92
31337;BME280;22846;42.654;23.314;2022-09-17T04:22:56;93575.97;;;28.26;47.92
31337;BME280;22846;42.654;23.314;2022-09-17T04:25:22;93602.22;;;28.27;48.00
31337;BME280;22846;42.654;23.314;2022-09-17T04:27:48;93585.72;;;28.27;47.94
31337;BME280;22846;42.654;23.314;2022-09-17T04:30:14;93604.97;;;28.27;47.91
31337;BME280;22846;42.654;23.314;2022-09-17T04:32:42;93610.44;;;28.27;47.74
31337;BME280;22846;42.654;23.314;2022-09-17T04:35:08;93615.94;;;28.27;47.83
31337;BME280;22846;42.654;23.314;2022-09-17T04:37:33;93618.69;;;28.27;47.96
31337;BME280;22846;42.654;23.314;2022-09-17T04:39:59;93620.22;;;28.28;47.88
31337;BME280;22846;42.654;23.314;2022-09-17T04:42:24;93629.19;;;28.28;47.87
31337;BME280;22846;42.654;23.314;2022-09-17T04:44:49;93636.69;;;28.28;47.80
31337;BME280;22846;42.654;23.314;2022-09-17T04:47:15;93646.19;;;28.27;48.03
31337;BME280;22846;42.654;23.314;2022-09-17T04:49:40;93642.19;;;28.28;47.89
31337;BME280;22846;42.654;23.314;2022-09-17T04:52:06;93648.91;;;28.27;47.76
31337;BME280;22846;42.654;23.314;2022-09-17T04:54:31;93660.66;;;28.27;47.75
31337;BME280;22846;42.654;23.314;2022-09-17T04:56:58;93660.66;;;28.27;47.84
31337;BME280;22846;42.654;23.314;2022-09-17T04:59:23;93658.69;;;28.28;47.76
31337;BME280;22846;42.654;23.314;2022-09-17T05:01:48;93660.66;;;28.27;47.64
31337;BME280;22846;42.654;23.314;2022-09-17T05:04:14;93658.69;;;28.28;47.70
31337;BME280;22846;42.654;23.314;2022-09-17T05:06:40;93637.66;;;28.25;47.90
31337;BME280;22846;42.654;23.314;2022-09-17T05:09:06;93643.44;;;28.27;47.98
31337;BME280;22846;42.654;23.314;2022-09-17T05:11:31;93633.94;;;28.28;47.85
31337;BME280;22846;42.654;23.314;2022-09-17T05:13:57;93633.94;;;28.28;47.87
31337;BME280;22846;42.654;23.314;2022-09-17T05:16:22;93609.56;;;28.16;47.95
31337;BME280;22846;42.654;23.314;2022-09-17T05:18:48;93630.16;;;28.25;47.73
31337;BME280;22846;42.654;23.314;2022-09-17T05:21:16;93614.16;;;28.24;47.95
31337;BME280;22846;42.654;23.314;2022-09-17T05:23:41;93612.94;;;28.25;47.98
31337;BME280;22846;42.654;23.314;2022-09-17T05:26:06;93603.19;;;28.24;47.92
31337;BME280;22846;42.654;23.314;2022-09-17T05:28:32;93596.44;;;28.25;48.02
31337;BME280;22846;42.654;23.314;2022-09-17T05:30:58;93599.94;;;28.25;47.97
31337;BME280;22846;42.654;23.314;2022-09-17T05:33:24;93599.41;;;28.21;48.05
31337;BME280;22846;42.654;23.314;2022-09-17T05:35:50;93611.69;;;28.26;48.02
31337;BME280;22846;42.654;23.314;2022-09-17T05:38:15;93627.69;;;28.27;47.89
31337;BME280;22846;42.654;23.314;2022-09-17T05:40:42;93624.94;;;28.27;47.90
31337;BME280;22846;42.654;23.314;2022-09-17T05:43:08;93626.16;;;28.26;47.96
31337;BME280;22846;42.654;23.314;2022-09-17T05:45:34;93625.72;;;28.28;47.90
31337;BME280;22846;42.654;23.314;2022-09-17T05:48:01;93632.72;;;28.29;48.01
31337;BME280;22846;42.654;23.314;2022-09-17T05:50:28;93629.19;;;28.28;47.81
31337;BME280;22846;42.654;23.314;2022-09-17T05:52:54;93640.19;;;28.28;47.87
31337;BME280;22846;42.654;23.314;2022-09-17T05:55:21;93641.69;;;28.29;47.86
31337;BME280;22846;42.654;23.314;2022-09-17T05:57:50;93640.97;;;28.29;47.78
31337;BME280;22846;42.654;23.314;2022-09-17T06:00:16;93646.44;;;28.29;47.65
31337;BME280;22846;42.654;23.314;2022-09-17T06:02:42;93635.47;;;28.29;47.80
31337;BME280;22846;42.654;23.314;2022-09-17T06:05:08;93621.72;;;28.29;47.94
31337;BME280;22846;42.654;23.314;2022-09-17T06:07:34;93620.94;;;28.28;47.80
31337;BME280;22846;42.654;23.314;2022-09-17T06:10:01;93638.94;;;28.29;47.85
31337;BME280;22846;42.654;23.314;2022-09-17T06:12:26;93634.69;;;28.28;47.78
31337;BME280;22846;42.654;23.314;2022-09-17T06:14:51;93633.44;;;28.29;47.74
31337;BME280;22846;42.654;23.314;2022-09-17T06:17:17;93627.97;;;28.29;47.63
31337;BME280;22846;42.654;23.314;2022-09-17T06:19:42;93640.97;;;28.29;47.67
31337;BME280;22846;42.654;23.314;2022-09-17T06:22:08;93660.19;;;28.29;47.76
31337;BME280;22846;42.654;23.314;2022-09-17T06:24:33;93680.16;;;28.29;47.82
31337;BME280;22846;42.654;23.314;2022-09-17T06:26:59;93686.41;;;28.30;47.83
31337;BME280;22846;42.654;23.314;2022-09-17T06:29:24;93713.88;;;28.30;47.96
31337;BME280;22846;42.654;23.314;2022-09-17T06:31:50;93720.16;;;28.30;48.04
31337;BME280;22846;42.654;23.314;2022-09-17T06:34:16;93725.81;;;28.21;46.36
31337;BME280;22846;42.654;23.314;2022-09-17T06:36:42;93725.03;;;28.01;45.70
31337;BME280;22846;42.654;23.314;2022-09-17T06:39:07;93746.00;;;27.79;45.74
31337;BME280;22846;42.654;23.314;2022-09-17T06:41:33;93746.22;;;27.61;47.26
31337;BME280;22846;42.654;23.314;2022-09-17T06:43:59;93713.31;;;27.46;47.71
31337;BME280;22846;42.654;23.314;2022-09-17T06:46:25;93713.69;;;27.54;48.19
31337;BME280;22846;42.654;23.314;2022-09-17T06:48:51;93702.00;;;27.59;47.97
31337;BME280;22846;42.654;23.314;2022-09-17T06:51:16;93698.34;;;27.62;46.87
31337;BME280;22846;42.654;23.314;2022-09-17T06:53:42;93712.81;;;27.62;46.47
31337;BME280;22846;42.654;23.314;2022-09-17T06:56:08;93697.00;;;27.57;46.31
31337;BME280;22846;42.654;23.314;2022-09-17T06:58:35;93692.06;;;27.41;46.79
31337;BME280;22846;42.654;23.314;2022-09-17T07:01:03;93681.53;;;27.40;47.58
31337;BME280;22846;42.654;23.314;2022-09-17T07:03:29;93679.66;;;27.46;48.26
31337;BME280;22846;42.654;23.314;2022-09-17T07:05:56;93663.78;;;27.55;48.05
31337;BME280;22846;42.654;23.314;2022-09-17T07:08:21;93634.72;;;27.63;47.92
31337;BME280;22846;42.654;23.314;2022-09-17T07:10:47;93628.34;;;27.72;47.97
31337;BME280;22846;42.654;23.314;2022-09-17T07:13:13;93624.41;;;27.78;47.91
31337;BME280;22846;42.654;23.314;2022-09-17T07:15:38;93622.50;;;27.84;47.66
31337;BME280;22846;42.654;23.314;2022-09-17T07:18:08;93623.78;;;27.89;47.79
31337;BME280;22846;42.654;23.314;2022-09-17T07:20:34;93599.13;;;27.94;47.76
31337;BME280;22846;42.654;23.314;2022-09-17T07:23:00;93580.69;;;28.00;47.52
31337;BME280;22846;42.654;23.314;2022-09-17T07:25:25;93590.25;;;28.05;47.20
31337;BME280;22846;42.654;23.314;2022-09-17T07:27:51;93620.50;;;28.10;47.44
31337;BME280;22846;42.654;23.314;2022-09-17T07:30:17;93614.78;;;28.14;47.53
31337;BME280;22846;42.654;23.314;2022-09-17T07:32:43;93608.31;;;28.16;47.28
31337;BME280;22846;42.654;23.314;2022-09-17T07:35:08;93597.13;;;28.20;47.14
31337;BME280;22846;42.654;23.314;2022-09-17T07:37:34;93606.41;;;28.22;47.13
31337;BME280;22846;42.654;23.314;2022-09-17T07:39:59;93609.22;;;28.28;47.08
31337;BME280;22846;42.654;23.314;2022-09-17T07:42:24;93604.72;;;28.30;47.51
31337;BME280;22846;42.654;23.314;2022-09-17T07:44:51;93607.25;;;28.34;47.22
31337;BME280;22846;42.654;23.314;2022-09-17T07:47:17;93607.53;;;28.36;47.08
31337;BME280;22846;42.654;23.314;2022-09-17T07:49:42;93609.28;;;28.39;47.27
31337;BME280;22846;42.654;23.314;2022-09-17T07:52:08;93614.31;;;28.40;46.90
31337;BME280;22846;42.654;23.314;2022-09-17T07:54:33;93602.81;;;28.42;47.20
31337;BME280;22846;42.654;23.314;2022-09-17T07:57:01;93607.81;;;28.43;47.23
31337;BME280;22846;42.654;23.314;2022-09-17T07:59:26;93586.63;;;28.44;46.91
31337;BME280;22846;42.654;23.314;2022-09-17T08:01:51;93591.13;;;28.47;46.85
31337;BME280;22846;42.654;23.314;2022-09-17T08:04:17;93612.63;;;28.48;47.22
31337;BME280;22846;42.654;23.314;2022-09-17T08:06:42;93595.66;;;28.50;47.14
31337;BME280;22846;42.654;23.314;2022-09-17T08:09:13;93584.66;;;28.50;47.00
31337;BME280;22846;42.654;23.314;2022-09-17T08:11:39;93584.16;;;28.51;47.04
31337;BME280;22846;42.654;23.314;2022-09-17T08:14:05;93576.41;;;28.50;46.01
31337;BME280;22846;42.654;23.314;2022-09-17T08:16:30;93570.88;;;28.44;45.12
31337;BME280;22846;42.654;23.314;2022-09-17T08:18:56;93578.28;;;28.33;46.21
31337;BME280;22846;42.654;23.314;2022-09-17T08:21:22;93588.47;;;28.27;45.26
31337;BME280;22846;42.654;23.314;2022-09-17T08:23:48;93584.69;;;27.99;45.20
31337;BME280;22846;42.654;23.314;2022-09-17T08:26:16;93584.47;;;27.77;45.68
31337;BME280;22846;42.654;23.314;2022-09-17T08:28:52;93573.09;;;27.64;45.81
31337;BME280;22846;42.654;23.314;2022-09-17T08:31:23;93575.38;;;27.46;46.76
31337;BME280;22846;42.654;23.314;2022-09-17T08:33:49;93577.06;;;27.43;47.04
31337;BME280;22846;42.654;23.314;2022-09-17T08:36:17;93586.59;;;27.48;47.54
31337;BME280;22846;42.654;23.314;2022-09-17T08:38:43;93575.69;;;27.53;46.66
31337;BME280;22846;42.654;23.314;2022-09-17T08:43:43;93585.00;;;27.61;45.85
31337;BME280;22846;42.654;23.314;2022-09-17T08:46:11;93572.81;;;27.62;45.94
31337;BME280;22846;42.654;23.314;2022-09-17T08:48:41;93565.03;;;27.61;45.89
31337;BME280;22846;42.654;23.314;2022-09-17T08:56:20;93574.25;;;27.58;45.75
31337;BME280;22846;42.654;23.314;2022-09-17T08:59:14;93569.25;;;27.56;46.22
31337;BME280;22846;42.654;23.314;2022-09-17T09:02:31;93564.28;;;27.60;45.66
31337;BME280;22846;42.654;23.314;2022-09-17T09:07:18;93568.28;;;27.59;46.01
31337;BME280;22846;42.654;23.314;2022-09-17T09:09:50;93573.50;;;27.57;45.77
31337;BME280;22846;42.654;23.314;2022-09-17T09:12:27;93582.00;;;27.59;45.88
31337;BME280;22846;42.654;23.314;2022-09-17T09:17:34;93591.63;;;27.49;46.68
31337;BME280;22846;42.654;23.314;2022-09-17T09:20:00;93587.84;;;27.47;46.99
31337;BME280;22846;42.654;23.314;2022-09-17T09:22:48;93598.78;;;27.41;47.58
31337;BME280;22846;42.654;23.314;2022-09-17T09:27:49;93612.88;;;27.34;47.40
31337;BME280;22846;42.654;23.314;2022-09-17T09:30:20;93620.56;;;27.31;47.83
31337;BME280;22846;42.654;23.314;2022-09-17T09:33:10;93621.44;;;27.22;48.10
31337;BME280;22846;42.654;23.314;2022-09-17T09:35:40;93633.31;;;27.14;48.04
31337;BME280;22846;42.654;23.314;2022-09-17T09:40:43;93654.81;;;27.01;48.95
31337;BME280;22846;42.654;23.314;2022-09-17T09:43:19;93655.75;;;26.98;49.34
31337;BME280;22846;42.654;23.314;2022-09-17T09:54:27;93663.53;;;26.85;50.93
31337;BME280;22846;42.654;23.314;2022-09-17T09:56:58;93671.00;;;26.84;51.61
31337;BME280;22846;42.654;23.314;2022-09-17T09:59:27;93681.88;;;26.79;52.32
31337;BME280;22846;42.654;23.314;2022-09-17T10:01:53;93645.13;;;26.71;52.17
31337;BME280;22846;42.654;23.314;2022-09-17T10:04:24;93632.16;;;26.71;52.73
31337;BME280;22846;42.654;23.314;2022-09-17T10:06:52;93616.69;;;26.68;52.55
31337;BME280;22846;42.654;23.314;2022-09-17T10:09:19;93589.75;;;26.67;52.44
31337;BME280;22846;42.654;23.314;2022-09-17T10:12:00;93570.97;;;26.60;53.01
31337;BME280;22846;42.654;23.314;2022-09-17T10:14:28;93568.53;;;26.48;52.92
31337;BME280;22846;42.654;23.314;2022-09-17T10:22:36;93538.59;;;26.44;53.07
31337;BME280;22846;42.654;23.314;2022-09-17T10:25:11;93498.53;;;26.32;52.98
31337;BME280;22846;42.654;23.314;2022-09-17T10:27:44;93488.81;;;26.31;52.63
31337;BME280;22846;42.654;23.314;2022-09-17T10:32:35;93513.19;;;26.44;52.59
31337;BME280;22846;42.654;23.314;2022-09-17T10:35:05;93538.19;;;26.51;53.00
31337;BME280;22846;42.654;23.314;2022-09-17T10:37:45;93532.97;;;26.67;52.49
31337;BME280;22846;42.654;23.314;2022-09-17T10:42:46;93511.59;;;26.91;51.73
31337;BME280;22846;42.654;23.314;2022-09-17T10:45:29;93503.72;;;26.99;51.40
31337;BME280;22846;42.654;23.314;2022-09-17T10:47:57;93479.31;;;27.01;50.93
31337;BME280;22846;42.654;23.314;2022-09-17T10:52:50;93455.88;;;27.00;48.99
31337;BME280;22846;42.654;23.314;2022-09-17T10:55:37;93474.00;;;26.97;49.98
31337;BME280;22846;42.654;23.314;2022-09-17T11:01:09;93451.25;;;26.91;49.37
31337;BME280;22846;42.654;23.314;2022-09-17T11:11:35;93511.25;;;26.64;51.13
31337;BME280;22846;42.654;23.314;2022-09-17T11:14:32;93513.75;;;26.48;51.62
31337;BME280;22846;42.654;23.314;2022-09-17T11:22:52;93519.00;;;26.17;52.73
31337;BME280;22846;42.654;23.314;2022-09-17T11:25:33;93503.22;;;26.12;52.63
31337;BME280;22846;42.654;23.314;2022-09-17T11:31:32;93531.94;;;26.02;54.97
31337;BME280;22846;42.654;23.314;2022-09-17T11:36:23;93524.28;;;25.91;55.81
31337;BME280;22846;42.654;23.314;2022-09-17T11:38:52;93550.06;;;25.85;54.22
31337;BME280;22846;42.654;23.314;2022-09-17T11:41:29;93532.06;;;25.78;54.21
31337;BME280;22846;42.654;23.314;2022-09-17T11:47:01;93527.41;;;25.84;54.01
31337;BME280;22846;42.654;23.314;2022-09-17T11:54:32;93520.72;;;26.00;52.72
31337;BME280;22846;42.654;23.314;2022-09-17T11:57:24;93484.44;;;26.05;52.16
31337;BME280;22846;42.654;23.314;2022-09-17T11:59:57;93520.72;;;26.00;52.49
31337;BME280;22846;42.654;23.314;2022-09-17T12:02:37;93506.06;;;26.03;52.23
31337;BME280;22846;42.654;23.314;2022-09-17T12:09:09;93511.38;;;25.92;51.83
31337;BME280;22846;42.654;23.314;2022-09-17T12:11:22;93508.16;;;25.93;51.69
31337;BME280;22846;42.654;23.314;2022-09-17T12:13:51;93491.81;;;25.99;52.48
31337;BME280;22846;42.654;23.314;2022-09-17T12:16:24;93485.97;;;25.91;52.20
31337;BME280;22846;42.654;23.314;2022-09-17T12:18:59;93488.91;;;25.88;52.63
31337;BME280;22846;42.654;23.314;2022-09-17T12:21:32;93471.88;;;25.98;53.31
31337;BME280;22846;42.654;23.314;2022-09-17T12:24:06;93493.84;;;26.18;52.71
31337;BME280;22846;42.654;23.314;2022-09-17T12:32:56;93477.25;;;26.56;51.68
31337;BME280;22846;42.654;23.314;2022-09-17T12:41:05;93478.63;;;26.86;51.32
31337;BME280;22846;42.654;23.314;2022-09-17T12:48:51;93443.38;;;26.99;51.47
31337;BME280;22846;42.654;23.314;2022-09-17T12:59:23;93448.59;;;27.17;49.86
31337;BME280;22846;42.654;23.314;2022-09-17T13:12:48;93434.53;;;27.09;45.23
31337;BME280;22846;42.654;23.314;2022-09-17T13:17:55;93440.31;;;26.51;44.36
31337;BME280;22846;42.654;23.314;2022-09-17T13:20:32;93428.06;;;26.13;44.27
31337;BME280;22846;42.654;23.314;2022-09-17T13:23:02;93429.06;;;25.95;45.98
31337;BME280;22846;42.654;23.314;2022-09-17T13:25:28;93431.34;;;25.82;45.44
31337;BME280;22846;42.654;23.314;2022-09-17T13:28:07;93443.59;;;25.87;46.19
31337;BME280;22846;42.654;23.314;2022-09-17T13:31:01;93430.00;;;25.63;47.57
31337;BME280;22846;42.654;23.314;2022-09-17T13:33:54;93408.31;;;25.60;47.45
31337;BME280;22846;42.654;23.314;2022-09-17T13:39:00;93413.25;;;25.42;47.00
31337;BME280;22846;42.654;23.314;2022-09-17T13:41:26;93394.50;;;25.35;46.28
31337;BME280;22846;42.654;23.314;2022-09-17T13:43:53;93366.75;;;25.27;46.07
31337;BME280;22846;42.654;23.314;2022-09-17T13:46:24;93361.78;;;25.26;45.98
31337;BME280;22846;42.654;23.314;2022-09-17T13:49:01;93346.47;;;25.05;45.79
31337;BME280;22846;42.654;23.314;2022-09-17T13:53:55;93310.47;;;25.21;47.80
31337;BME280;22846;42.654;23.314;2022-09-17T13:56:34;93322.50;;;25.43;48.13
31337;BME280;22846;42.654;23.314;2022-09-17T13:59:22;93310.69;;;25.66;48.37
31337;BME280;22846;42.654;23.314;2022-09-17T14:02:01;93308.25;;;25.88;48.46
31337;BME280;22846;42.654;23.314;2022-09-17T14:09:57;93323.72;;;26.31;48.97
31337;BME280;22846;42.654;23.314;2022-09-17T14:18:00;93318.06;;;26.54;49.70
31337;BME280;22846;42.654;23.314;2022-09-17T14:20:29;93308.66;;;26.60;50.03
31337;BME280;22846;42.654;23.314;2022-09-17T14:22:59;93299.25;;;26.67;49.96
31337;BME280;22846;42.654;23.314;2022-09-17T14:25:39;93315.00;;;26.72;50.71
31337;BME280;22846;42.654;23.314;2022-09-17T14:28:28;93318.81;;;26.80;51.67
31337;BME280;22846;42.654;23.314;2022-09-17T14:31:00;93334.56;;;26.85;51.12
31337;BME280;22846;42.654;23.314;2022-09-17T14:33:29;93320.91;;;26.90;51.06
31337;BME280;22846;42.654;23.314;2022-09-17T14:36:10;93295.53;;;26.95;52.35
31337;BME280;22846;42.654;23.314;2022-09-17T14:38:44;93314.78;;;27.01;51.79
31337;BME280;22846;42.654;23.314;2022-09-17T14:46:43;93292.22;;;27.11;52.20
31337;BME280;22846;42.654;23.314;2022-09-17T14:49:24;93294.47;;;27.13;52.16
31337;BME280;22846;42.654;23.314;2022-09-17T14:51:51;93308.13;;;27.07;52.23
31337;BME280;22846;42.654;23.314;2022-09-17T14:56:52;93281.31;;;27.22;53.63
31337;BME280;22846;42.654;23.314;2022-09-17T15:01:47;93243.63;;;27.17;52.84
31337;BME280;22846;42.654;23.314;2022-09-17T15:06:42;93280.03;;;27.18;49.42
31337;BME280;22846;42.654;23.314;2022-09-17T15:09:15;93285.97;;;26.85;50.06
31337;BME280;22846;42.654;23.314;2022-09-17T15:11:42;93281.06;;;26.44;49.85
31337;BME280;22846;42.654;23.314;2022-09-17T15:14:16;93251.84;;;25.56;51.71
31337;BME280;22846;42.654;23.314;2022-09-17T15:16:52;93275.50;;;25.59;52.07
31337;BME280;22846;42.654;23.314;2022-09-17T15:19:31;93275.34;;;25.48;52.37
31337;BME280;22846;42.654;23.314;2022-09-17T15:21:58;93277.44;;;25.39;52.51
31337;BME280;22846;42.654;23.314;2022-09-17T15:27:22;93266.78;;;25.41;53.13
31337;BME280;22846;42.654;23.314;2022-09-17T15:29:53;93250.94;;;25.45;52.55
31337;BME280;22846;42.654;23.314;2022-09-17T15:32:21;93256.13;;;25.62;53.22
31337;BME280;22846;42.654;23.314;2022-09-17T15:37:49;93251.34;;;25.92;54.74
31337;BME280;22846;42.654;23.314;2022-09-17T15:43:04;93257.28;;;26.10;53.89
31337;BME280;22846;42.654;23.314;2022-09-17T15:45:37;93253.91;;;26.21;53.51
31337;BME280;22846;42.654;23.314;2022-09-17T15:48:05;93245.03;;;26.31;53.87
31337;BME280;22846;42.654;23.314;2022-09-17T15:50:35;93243.69;;;26.41;54.21
31337;BME280;22846;42.654;23.314;2022-09-17T15:53:24;93269.69;;;26.51;54.49
31337;BME280;22846;42.654;23.314;2022-09-17T15:56:06;93263.31;;;26.59;54.16
31337;BME280;22846;42.654;23.314;2022-09-17T16:08:45;93219.56;;;26.45;53.08
31337;BME280;22846;42.654;23.314;2022-09-17T16:11:15;93212.88;;;26.46;53.67
31337;BME280;22846;42.654;23.314;2022-09-17T16:13:40;93232.09;;;26.51;53.87
31337;BME280;22846;42.654;23.314;2022-09-17T16:16:08;93208.22;;;26.57;54.02